Time;durP1;ratioP1;P1;durP2;ratioP2;P2;SDS_P1;SDS_P2;PMS_P1;PMS_P2;Temp;Humidity;BMP_temperature;BMP_pressure;BME280_temperature;BME280_humidity;BME280_pressure;Samples;Min_cycle;Max_cycle;Signal;HPM_P1;HPM_P2
2022/02/28 00:00:49;;;;;;;6.22;3.00;;;3.10;99.90;;;;;;5014843;28;20041;-82
2022/02/28 00:03:15;;;;;;;8.00;2.65;;;3.10;99.90;;;;;;5014897;28;20324;-81
2022/02/28 00:05:41;;;;;;;11.30;2.88;;;3.00;99.90;;;;;;5014714;28;20036;-82
2022/02/28 00:08:07;;;;;;;6.73;2.60;;;3.00;99.90;;;;;;5015072;28;20049;-81
2022/02/28 00:10:32;;;;;;;7.30;3.37;;;3.00;99.90;;;;;;5015305;28;20030;-83
2022/02/28 00:12:58;;;;;;;8.83;2.47;;;2.90;99.90;;;;;;5041506;28;20086;-82
2022/02/28 00:15:24;;;;;;;4.53;2.43;;;2.90;99.90;;;;;;5023743;28;20711;-80
2022/02/28 00:17:50;;;;;;;5.30;1.73;;;2.90;99.90;;;;;;5014475;28;20332;-81
2022/02/28 00:20:17;;;;;;;5.93;2.03;;;3.00;99.90;;;;;;5014648;28;20067;-80
2022/02/28 00:22:42;;;;;;;;;;;2.90;99.90;;;;;;5015391;28;20033;-82
2022/02/28 00:25:11;;;;;;;5.17;2.43;;;3.00;99.90;;;;;;5032497;28;19995;-82
2022/02/28 00:27:38;;;;;;;4.70;2.45;;;3.00;99.90;;;;;;5015335;28;20029;-83
2022/02/28 00:30:07;;;;;;;7.88;3.55;;;3.00;99.90;;;;;;5015210;28;20030;-81
2022/02/28 00:32:33;;;;;;;9.82;2.90;;;2.90;99.90;;;;;;5014982;28;20041;-82
2022/02/28 00:34:59;;;;;;;5.05;2.17;;;2.90;99.90;;;;;;5032424;28;20032;-81
2022/02/28 00:37:24;;;;;;;11.50;2.97;;;3.00;99.90;;;;;;5014736;28;20029;-81
2022/02/28 00:39:50;;;;;;;8.93;2.90;;;2.90;99.90;;;;;;5014386;28;20050;-80
2022/02/28 00:42:16;;;;;;;2.80;1.57;;;3.00;99.90;;;;;;5014636;28;20320;-81
2022/02/28 00:44:41;;;;;;;5.80;2.67;;;2.90;99.90;;;;;;5014461;28;20034;-81
2022/02/28 00:47:08;;;;;;;5.00;2.90;;;2.90;99.90;;;;;;5014662;28;20411;-82
2022/02/28 00:49:34;;;;;;;6.65;3.42;;;2.80;99.90;;;;;;5014203;28;20761;-81
2022/02/28 00:52:00;;;;;;;4.65;2.35;;;2.80;99.90;;;;;;5019679;28;20022;-81
2022/02/28 00:54:27;;;;;;;10.27;2.77;;;2.70;99.90;;;;;;5031946;28;20253;-82
2022/02/28 00:56:54;;;;;;;8.48;2.30;;;2.80;99.90;;;;;;5031817;28;20029;-81
2022/02/28 00:59:21;;;;;;;11.60;2.65;;;2.70;99.90;;;;;;5013992;28;20025;-81
2022/02/28 01:01:47;;;;;;;4.60;2.33;;;2.80;99.90;;;;;;5033118;28;20037;-83
2022/02/28 01:04:13;;;;;;;5.27;2.23;;;2.70;99.90;;;;;;5036036;28;20029;-80
2022/02/28 01:06:38;;;;;;;7.17;2.60;;;2.70;99.90;;;;;;5018143;28;20091;-81
2022/02/28 01:09:04;;;;;;;4.27;2.63;;;2.70;99.90;;;;;;5011801;28;20284;-81
2022/02/28 01:11:31;;;;;;;4.25;2.28;;;2.70;99.90;;;;;;5017500;28;20044;-81
2022/02/28 01:13:57;;;;;;;7.78;2.42;;;2.70;99.90;;;;;;5018031;28;20375;-82
2022/02/28 01:16:24;;;;;;;6.45;2.58;;;2.70;99.90;;;;;;5017718;28;20029;-80
2022/02/28 01:18:49;;;;;;;3.38;2.22;;;2.70;99.90;;;;;;5035191;28;20038;-81
2022/02/28 01:21:16;;;;;;;7.23;3.20;;;2.70;99.90;;;;;;5017514;28;20045;-81
2022/02/28 01:23:41;;;;;;;5.30;1.95;;;2.50;99.90;;;;;;5014586;28;20037;-81
2022/02/28 01:26:07;;;;;;;7.63;2.77;;;2.50;99.90;;;;;;5035198;28;20043;-81
2022/02/28 01:28:33;;;;;;;7.30;2.97;;;2.40;99.90;;;;;;5018171;28;20068;-81
2022/02/28 01:30:58;;;;;;;2.77;1.83;;;2.30;99.90;;;;;;5034920;28;20077;-80
2022/02/28 01:33:24;;;;;;;4.57;2.30;;;2.30;99.90;;;;;;5016973;28;20387;-81
2022/02/28 01:35:50;;;;;;;7.60;3.17;;;2.20;99.90;;;;;;5017517;28;20113;-82
2022/02/28 01:38:16;;;;;;;6.43;3.30;;;2.20;99.90;;;;;;5018086;28;20527;-81
2022/02/28 01:40:42;;;;;;;6.80;2.77;;;2.10;99.90;;;;;;5017141;28;20363;-81
2022/02/28 01:43:07;;;;;;;5.27;3.07;;;2.10;99.90;;;;;;5016907;28;20030;-81
2022/02/28 01:45:33;;;;;;;5.93;2.80;;;1.90;99.90;;;;;;5034812;28;20033;-81
2022/02/28 01:48:00;;;;;;;9.98;3.28;;;1.80;99.90;;;;;;5035161;28;20040;-81
2022/02/28 01:50:27;;;;;;;6.28;2.63;;;1.80;99.90;;;;;;5034361;28;20040;-81
2022/02/28 01:52:52;;;;;;;;;;;1.70;99.90;;;;;;5017330;28;20032;-81
2022/02/28 01:55:20;;;;;;;6.38;2.33;;;1.70;99.90;;;;;;5010316;28;19913;-82
2022/02/28 01:57:47;;;;;;;7.30;3.30;;;1.70;99.90;;;;;;5034846;28;20045;-81
2022/02/28 02:00:16;;;;;;;9.45;3.40;;;1.70;99.90;;;;;;5034779;28;20060;-80
2022/02/28 02:02:42;;;;;;;4.93;2.47;;;1.70;99.90;;;;;;5017154;28;20116;-81
2022/02/28 02:05:08;;;;;;;7.47;2.60;;;1.60;99.90;;;;;;5016825;28;20120;-80
2022/02/28 02:07:35;;;;;;;4.65;2.20;;;1.60;99.90;;;;;;5034658;28;20091;-80
2022/02/28 02:10:07;;;;;;;10.55;3.70;;;1.60;99.90;;;;;;5016563;28;20045;-81
2022/02/28 02:12:33;;;;;;;5.13;3.05;;;1.60;99.90;;;;;;5016759;28;20034;-83
2022/02/28 02:14:59;;;;;;;9.65;3.70;;;1.50;99.90;;;;;;5015138;28;20041;-80
2022/02/28 02:17:25;;;;;;;8.33;3.83;;;1.50;99.90;;;;;;5032419;28;20033;-80
2022/02/28 02:19:54;;;;;;;7.00;2.80;;;1.40;99.90;;;;;;5015497;28;20447;-82
2022/02/28 02:22:21;;;;;;;6.95;2.83;;;1.30;99.90;;;;;;5012451;28;20030;-82
2022/02/28 02:24:47;;;;;;;;;;;1.20;99.90;;;;;;5011462;28;20053;-81
2022/02/28 02:27:13;;;;;;;5.70;2.35;;;1.20;99.90;;;;;;5014809;28;19975;-80
2022/02/28 02:29:40;;;;;;;7.13;3.27;;;1.10;99.90;;;;;;5008997;28;20440;-80
2022/02/28 02:32:08;;;;;;;8.80;3.83;;;1.10;99.90;;;;;;5009971;28;20379;-80
2022/02/28 02:34:34;;;;;;;8.20;3.25;;;1.10;99.90;;;;;;5015459;28;20029;-81
2022/02/28 02:36:59;;;;;;;6.67;2.90;;;1.10;99.90;;;;;;5016040;28;20056;-81
2022/02/28 02:39:25;;;;;;;8.00;3.33;;;1.10;99.90;;;;;;5033976;28;20034;-81
2022/02/28 02:41:53;;;;;;;5.93;2.63;;;1.30;99.90;;;;;;5033835;28;20618;-82
2022/02/28 02:44:19;;;;;;;5.78;3.10;;;1.10;99.90;;;;;;5033734;28;20029;-81
2022/02/28 02:46:46;;;;;;;7.97;3.67;;;1.10;99.90;;;;;;5034960;28;20051;-81
2022/02/28 02:49:14;;;;;;;10.23;3.85;;;1.10;99.90;;;;;;5018427;28;20075;-81
2022/02/28 02:51:41;;;;;;;5.85;2.67;;;1.10;99.90;;;;;;5036120;28;20021;-81
2022/02/28 02:54:07;;;;;;;5.57;3.25;;;1.10;99.90;;;;;;5015609;28;20053;-82
2022/02/28 02:56:32;;;;;;;7.88;2.20;;;1.00;99.90;;;;;;5040605;28;20032;-83
2022/02/28 02:58:58;;;;;;;6.47;3.10;;;1.00;99.90;;;;;;5019185;28;20026;-81
2022/02/28 03:01:24;;;;;;;7.50;4.10;;;1.00;99.90;;;;;;5019261;28;20112;-81
2022/02/28 03:03:50;;;;;;;13.03;3.73;;;1.00;99.90;;;;;;5018971;28;20706;-81
2022/02/28 03:06:15;;;;;;;7.00;3.10;;;1.00;99.90;;;;;;5018938;28;20075;-80
2022/02/28 03:08:41;;;;;;;9.37;2.67;;;1.00;99.90;;;;;;5018886;28;20030;-81
2022/02/28 03:11:06;;;;;;;7.87;3.23;;;1.00;99.90;;;;;;5023004;28;20411;-81
2022/02/28 03:13:32;;;;;;;9.77;3.03;;;1.00;99.90;;;;;;5019267;28;20171;-80
2022/02/28 03:15:58;;;;;;;6.37;2.93;;;1.00;99.90;;;;;;5018929;28;20029;-80
2022/02/28 03:18:24;;;;;;;6.77;3.83;;;0.90;99.90;;;;;;5035302;28;20100;-80
2022/02/28 03:20:49;;;;;;;11.73;3.20;;;0.80;99.90;;;;;;5035638;28;20026;-81
2022/02/28 03:23:15;;;;;;;9.70;3.40;;;0.80;99.90;;;;;;5018820;28;20079;-81
2022/02/28 03:25:41;;;;;;;13.03;2.27;;;0.80;99.90;;;;;;5017889;28;20365;-81
2022/02/28 03:28:06;;;;;;;11.03;2.87;;;0.60;99.90;;;;;;5018332;28;20037;-80
2022/02/28 03:30:32;;;;;;;11.37;3.50;;;0.60;99.90;;;;;;5018903;28;20049;-80
2022/02/28 03:32:58;;;;;;;4.77;2.97;;;0.60;99.90;;;;;;5018716;28;20049;-80
2022/02/28 03:35:24;;;;;;;6.53;3.23;;;0.60;99.90;;;;;;5035988;28;20320;-81
2022/02/28 03:37:50;;;;;;;12.80;2.67;;;0.50;99.90;;;;;;5018250;28;20029;-79
2022/02/28 03:40:15;;;;;;;8.73;2.90;;;0.40;99.90;;;;;;5035257;28;20024;-81
2022/02/28 03:42:41;;;;;;;9.97;3.57;;;0.40;99.90;;;;;;5017685;28;20052;-84
2022/02/28 03:45:07;;;;;;;9.63;3.03;;;0.40;99.90;;;;;;5035782;28;20029;-81
2022/02/28 03:47:34;;;;;;;6.43;2.72;;;0.40;99.90;;;;;;5018401;28;20044;-82
2022/02/28 03:49:59;;;;;;;8.00;2.88;;;0.50;99.90;;;;;;5035464;28;20029;-81
2022/02/28 03:52:25;;;;;;;6.53;3.20;;;0.50;99.90;;;;;;5035575;28;20359;-83
2022/02/28 03:54:51;;;;;;;8.33;3.77;;;0.50;99.90;;;;;;5018319;28;20124;-81
2022/02/28 03:57:16;;;;;;;8.93;2.70;;;0.50;99.90;;;;;;5033972;28;20021;-81
2022/02/28 03:59:42;;;;;;;5.07;2.67;;;0.40;99.90;;;;;;5035403;28;20104;-80
2022/02/28 04:02:08;;;;;;;3.97;2.57;;;0.50;99.90;;;;;;5017950;28;20224;-80
2022/02/28 04:04:34;;;;;;;9.67;3.67;;;0.50;99.90;;;;;;5035300;28;20037;-79
2022/02/28 04:06:59;;;;;;;6.73;3.33;;;0.50;99.90;;;;;;5017739;28;20374;-80
2022/02/28 04:09:25;;;;;;;6.80;3.40;;;0.40;99.90;;;;;;5026318;28;20029;-84
2022/02/28 04:11:51;;;;;;;14.63;3.53;;;0.40;99.90;;;;;;5034909;28;20111;-80
2022/02/28 04:14:17;;;;;;;6.37;2.90;;;0.50;99.90;;;;;;5017670;28;20420;-80
2022/02/28 04:16:42;;;;;;;8.07;4.07;;;0.50;99.90;;;;;;5035186;28;20021;-80
2022/02/28 04:19:08;;;;;;;14.27;3.40;;;0.40;99.90;;;;;;5017547;28;20040;-80
2022/02/28 04:21:34;;;;;;;10.90;3.30;;;0.40;99.90;;;;;;5017474;28;20120;-81
2022/02/28 04:23:59;;;;;;;8.37;3.77;;;0.40;99.90;;;;;;5021169;28;20021;-81
2022/02/28 04:26:25;;;;;;;7.70;3.60;;;0.40;99.90;;;;;;5035058;28;20049;-84
2022/02/28 04:28:51;;;;;;;8.93;2.88;;;0.40;99.90;;;;;;5017916;28;20029;-82
2022/02/28 04:31:17;;;;;;;7.13;2.80;;;0.40;99.90;;;;;;5017225;28;20440;-80
2022/02/28 04:33:42;;;;;;;7.30;3.10;;;0.30;99.90;;;;;;5034383;28;20029;-80
2022/02/28 04:36:08;;;;;;;7.17;3.40;;;0.30;99.90;;;;;;5034255;28;20060;-81
2022/02/28 04:38:34;;;;;;;3.60;2.13;;;0.30;99.90;;;;;;5017120;28;20405;-81
2022/02/28 04:41:00;;;;;;;11.18;7.30;;;0.30;99.90;;;;;;5017735;28;20025;-80
2022/02/28 04:43:26;;;;;;;17.57;8.53;;;0.30;99.90;;;;;;5034766;28;20033;-80
2022/02/28 04:45:51;;;;;;;12.53;5.20;;;0.30;99.90;;;;;;5034477;28;20104;-80
2022/02/28 04:48:17;;;;;;;7.60;3.23;;;0.30;99.90;;;;;;5013053;28;20112;-82
2022/02/28 04:50:43;;;;;;;5.40;3.07;;;0.30;99.90;;;;;;5017643;28;20036;-83
2022/02/28 04:53:08;;;;;;;5.97;3.20;;;0.30;99.90;;;;;;5035210;28;20064;-82
2022/02/28 04:55:35;;;;;;;7.07;3.03;;;0.30;99.90;;;;;;5017591;28;20029;-82
2022/02/28 04:58:00;;;;;;;8.63;3.47;;;0.20;99.90;;;;;;5034342;28;20044;-81
2022/02/28 05:00:26;;;;;;;9.53;3.43;;;0.20;99.90;;;;;;5032796;28;20436;-79
2022/02/28 05:02:52;;;;;;;9.80;3.53;;;0.20;99.90;;;;;;5035822;28;20025;-81
2022/02/28 05:05:18;;;;;;;6.10;3.43;;;0.10;99.90;;;;;;5017302;28;20025;-80
2022/02/28 05:07:45;;;;;;;7.47;2.70;;;0.20;99.90;;;;;;5034945;28;20029;-81
2022/02/28 05:10:10;;;;;;;4.90;3.10;;;0.10;99.90;;;;;;5034991;28;20026;-84
2022/02/28 05:12:36;;;;;;;9.10;3.93;;;0.20;99.90;;;;;;5034549;28;20034;-80
2022/02/28 05:15:02;;;;;;;7.67;3.30;;;0.10;99.90;;;;;;5043753;28;20100;-80
2022/02/28 05:17:28;;;;;;;11.32;3.25;;;0.10;99.90;;;;;;5034916;28;20022;-80
2022/02/28 05:19:54;;;;;;;12.70;3.37;;;0.10;99.90;;;;;;5034159;28;20029;-81
2022/02/28 05:22:19;;;;;;;8.43;3.20;;;0.00;99.90;;;;;;5034784;28;20036;-81
2022/02/28 05:24:45;;;;;;;6.57;3.70;;;0.00;99.90;;;;;;5017182;28;20036;-80
2022/02/28 05:27:11;;;;;;;8.67;3.70;;;0.00;99.90;;;;;;5017223;28;20120;-80
2022/02/28 05:29:37;;;;;;;14.70;3.63;;;0.10;99.90;;;;;;5034546;28;20030;-80
2022/02/28 05:32:04;;;;;;;12.82;4.15;;;0.10;99.90;;;;;;5034457;28;20049;-80
2022/02/28 05:34:29;;;;;;;10.13;3.78;;;0.10;99.90;;;;;;5016816;28;20032;-80
2022/02/28 05:36:55;;;;;;;7.13;3.87;;;0.10;99.90;;;;;;5017056;28;20030;-79
2022/02/28 05:39:21;;;;;;;6.47;3.40;;;0.00;99.90;;;;;;5017069;28;20026;-80
2022/02/28 05:41:46;;;;;;;6.87;3.10;;;-0.10;99.90;;;;;;5017080;28;20036;-80
2022/02/28 05:44:12;;;;;;;7.50;3.30;;;0.00;99.90;;;;;;5016962;28;20032;-80
2022/02/28 05:46:38;;;;;;;7.43;2.93;;;-0.10;99.90;;;;;;5034436;28;20040;-80
2022/02/28 05:49:04;;;;;;;17.87;4.50;;;-0.10;99.90;;;;;;5035460;28;20069;-79
2022/02/28 05:51:31;;;;;;;12.82;3.53;;;-0.10;99.90;;;;;;5020670;28;20049;-81
2022/02/28 05:53:58;;;;;;;6.35;3.30;;;-0.10;99.90;;;;;;5020504;28;20424;-81
2022/02/28 05:56:24;;;;;;;;;;;-0.10;99.90;;;;;;5038464;28;20033;-80
2022/02/28 05:58:50;;;;;;;14.52;3.47;;;-0.10;99.90;;;;;;5019566;28;19909;-79
2022/02/28 06:01:16;;;;;;;20.37;8.53;;;-0.20;99.90;;;;;;5019012;28;20250;-80
2022/02/28 06:03:42;;;;;;;13.20;5.00;;;-0.20;99.90;;;;;;5020210;28;20294;-81
2022/02/28 06:06:08;;;;;;;10.90;4.00;;;-0.10;99.90;;;;;;5020552;28;20079;-80
2022/02/28 06:08:33;;;;;;;5.93;2.57;;;-0.10;99.90;;;;;;5037655;28;20025;-80
2022/02/28 06:10:59;;;;;;;5.47;3.47;;;-0.10;99.90;;;;;;5020108;28;20029;-81
2022/02/28 06:13:25;;;;;;;9.97;3.40;;;-0.10;99.90;;;;;;5020048;28;20040;-79
2022/02/28 06:15:51;;;;;;;7.10;3.37;;;-0.20;99.90;;;;;;5020418;28;20407;-79
2022/02/28 06:18:16;;;;;;;9.07;4.73;;;-0.20;99.90;;;;;;5019459;28;20017;-78
2022/02/28 06:20:43;;;;;;;14.53;3.97;;;-0.30;99.90;;;;;;5037809;28;20033;-80
2022/02/28 06:23:14;;;;;;;7.93;3.88;;;-0.30;99.90;;;;;;5037092;28;20029;-80
2022/02/28 06:25:41;;;;;;;7.25;3.38;;;-0.40;99.90;;;;;;5020155;28;20423;-79
2022/02/28 06:28:06;;;;;;;12.52;3.85;;;-0.50;99.90;;;;;;5019740;28;20032;-84
2022/02/28 06:30:32;;;;;;;7.23;3.73;;;-0.60;99.90;;;;;;5019769;28;20041;-79
2022/02/28 06:32:58;;;;;;;10.70;3.87;;;-0.70;99.90;;;;;;5019900;28;20113;-79
2022/02/28 06:35:23;;;;;;;12.17;3.37;;;-0.70;99.90;;;;;;5019680;28;20026;-79
2022/02/28 06:37:49;;;;;;;6.33;3.40;;;-0.70;99.90;;;;;;5019380;28;20442;-80
2022/02/28 06:40:15;;;;;;;10.73;3.07;;;-0.80;99.90;;;;;;5019445;28;20112;-82
2022/02/28 06:42:41;;;;;;;8.77;4.50;;;-0.80;99.90;;;;;;5037117;28;20037;-81
2022/02/28 06:45:07;;;;;;;14.00;3.73;;;-0.80;99.90;;;;;;5037075;28;20401;-80
2022/02/28 06:47:33;;;;;;;19.23;7.22;;;-0.80;99.90;;;;;;5019654;28;20107;-81
2022/02/28 06:49:59;;;;;;;7.03;4.17;;;-0.80;99.90;;;;;;5019442;28;20117;-81
2022/02/28 06:52:25;;;;;;;9.17;3.70;;;-0.80;99.90;;;;;;5019532;28;20018;-80
2022/02/28 06:54:54;;;;;;;7.60;3.28;;;-0.80;99.90;;;;;;5036746;28;20022;-82
2022/02/28 06:57:20;;;;;;;8.77;3.42;;;-0.70;99.90;;;;;;5014760;28;20036;-80
2022/02/28 06:59:46;;;;;;;17.55;4.30;;;-0.70;99.90;;;;;;5018647;28;20128;-80
2022/02/28 07:02:12;;;;;;;7.70;3.13;;;-0.50;99.90;;;;;;5036258;28;20418;-79
2022/02/28 07:04:37;;;;;;;6.43;2.83;;;-0.30;99.90;;;;;;5018077;28;20116;-80
2022/02/28 07:07:04;;;;;;;14.13;4.40;;;-0.20;99.90;;;;;;5035623;28;20029;-79
2022/02/28 07:09:31;;;;;;;7.63;4.00;;;-0.10;99.90;;;;;;5044071;28;20033;-80
2022/02/28 07:11:56;;;;;;;6.72;3.30;;;0.10;99.90;;;;;;5019909;28;20029;-84
2022/02/28 07:14:22;;;;;;;12.87;5.17;;;0.40;99.90;;;;;;5036569;28;20351;-80
2022/02/28 07:16:48;;;;;;;37.73;16.67;;;0.80;99.90;;;;;;5035824;28;20667;-80
2022/02/28 07:19:13;;;;;;;7.23;4.67;;;1.10;99.90;;;;;;5036229;28;20029;-80
2022/02/28 07:21:39;;;;;;;10.30;4.73;;;1.50;99.90;;;;;;5036413;28;20032;-80
2022/02/28 07:24:05;;;;;;;6.17;3.00;;;1.80;99.90;;;;;;5018638;28;20025;-80
2022/02/28 07:26:31;;;;;;;7.23;3.63;;;2.10;99.90;;;;;;5018480;28;20477;-79
2022/02/28 07:28:57;;;;;;;7.50;3.50;;;2.50;99.90;;;;;;5017145;28;20032;-80
2022/02/28 07:31:23;;;;;;;14.38;3.40;;;3.30;99.90;;;;;;5011630;28;20046;-80
2022/02/28 07:33:49;;;;;;;8.60;3.83;;;4.40;99.90;;;;;;5014839;28;20030;-80
2022/02/28 07:36:15;;;;;;;11.53;4.33;;;5.30;99.90;;;;;;5013179;28;20025;-89
2022/02/28 07:38:41;;;;;;;12.17;3.97;;;6.00;99.90;;;;;;5012524;28;20092;-80
2022/02/28 07:41:07;;;;;;;10.80;3.80;;;6.50;99.90;;;;;;5013185;28;20089;-80
2022/02/28 07:43:33;;;;;;;8.20;3.33;;;7.00;99.90;;;;;;5010840;28;20089;-81
2022/02/28 07:45:59;;;;;;;5.73;3.17;;;7.30;99.90;;;;;;5014927;28;20025;-80
2022/02/28 07:48:25;;;;;;;10.85;3.95;;;7.70;99.90;;;;;;5015243;28;20025;-80
2022/02/28 07:50:51;;;;;;;10.60;4.15;;;7.90;99.90;;;;;;5011713;28;20117;-80
2022/02/28 07:53:18;;;;;;;11.43;4.63;;;8.10;99.90;;;;;;5013184;28;21865;-81
2022/02/28 07:55:44;;;;;;;9.80;4.72;;;8.20;99.90;;;;;;5008721;28;20018;-79
2022/02/28 07:58:10;;;;;;;8.60;3.88;;;8.40;99.90;;;;;;5010622;28;20030;-82
2022/02/28 08:00:36;;;;;;;15.27;5.80;;;8.60;99.90;;;;;;5011289;28;20373;-81
2022/02/28 08:03:02;;;;;;;12.30;6.43;;;8.90;99.90;;;;;;5002484;28;20429;-83
2022/02/28 08:05:27;;;;;;;14.27;7.77;;;9.40;99.90;;;;;;5012836;28;20116;-81
2022/02/28 08:07:55;;;;;;;18.10;9.00;;;9.60;98.80;;;;;;5011183;28;20030;-81
2022/02/28 08:10:21;;;;;;;14.00;6.55;;;9.90;98.40;;;;;;5011071;28;20026;-89
2022/02/28 08:12:47;;;;;;;15.00;7.90;;;10.10;98.50;;;;;;5011457;28;20118;-81
2022/02/28 08:15:12;;;;;;;16.58;6.63;;;10.60;97.30;;;;;;5013064;28;20113;-80
2022/02/28 08:17:38;;;;;;;36.78;12.50;;;10.50;97.20;;;;;;5015710;28;20398;-82
2022/02/28 08:20:04;;;;;;;88.77;39.00;;;10.80;96.40;;;;;;5016066;28;20029;-89
2022/02/28 08:22:30;;;;;;;14.05;8.27;;;10.90;96.30;;;;;;5014577;28;20022;-81
2022/02/28 08:24:58;;;;;;;10.47;7.37;;;11.00;95.70;;;;;;5015816;28;20221;-81
2022/02/28 08:27:24;;;;;;;8.00;5.80;;;11.10;95.60;;;;;;5014464;28;20029;-81
2022/02/28 08:29:50;;;;;;;15.45;7.85;;;11.00;95.70;;;;;;5014519;28;20443;-81
2022/02/28 08:32:19;;;;;;;10.32;4.68;;;11.10;95.20;;;;;;5014382;28;20104;-82
2022/02/28 08:34:45;;;;;;;9.48;4.78;;;11.10;95.70;;;;;;5014467;28;20049;-81
2022/02/28 08:37:11;;;;;;;8.40;4.90;;;11.30;94.90;;;;;;5014849;28;20301;-81
2022/02/28 08:39:37;;;;;;;9.98;5.15;;;11.40;94.80;;;;;;5015248;28;20084;-80
2022/02/28 08:42:04;;;;;;;7.67;3.73;;;11.30;94.10;;;;;;5015371;28;20045;-81
2022/02/28 08:44:29;;;;;;;9.45;5.05;;;10.80;94.40;;;;;;5014421;28;20096;-86
2022/02/28 08:46:55;;;;;;;11.10;5.10;;;10.30;95.50;;;;;;5014398;28;20413;-87
2022/02/28 08:49:21;;;;;;;9.38;4.93;;;10.50;94.80;;;;;;5014596;28;20030;-82
2022/02/28 08:51:47;;;;;;;9.00;6.13;;;10.50;95.00;;;;;;5015378;28;20030;-81
2022/02/28 08:54:13;;;;;;;6.97;4.85;;;10.40;95.60;;;;;;5015562;28;20026;-83
2022/02/28 08:56:39;;;;;;;9.73;5.90;;;10.60;94.80;;;;;;5013978;28;20030;-82
2022/02/28 08:59:05;;;;;;;7.05;4.35;;;10.90;95.30;;;;;;5015502;28;20670;-81
2022/02/28 09:01:31;;;;;;;9.98;4.20;;;10.90;94.30;;;;;;5023692;28;20327;-88
2022/02/28 09:03:57;;;;;;;7.97;4.00;;;10.60;94.80;;;;;;5009163;28;20033;-83
2022/02/28 09:06:22;;;;;;;12.65;4.30;;;10.50;94.80;;;;;;5010617;28;20026;-80
2022/02/28 09:08:48;;;;;;;7.32;4.38;;;10.80;95.50;;;;;;5004492;28;20034;-82
2022/02/28 09:11:15;;;;;;;9.38;4.43;;;11.00;94.90;;;;;;5013466;28;20030;-82
2022/02/28 09:13:41;;;;;;;11.23;4.32;;;11.20;94.90;;;;;;5003414;28;20321;-82
2022/02/28 09:16:07;;;;;;;7.88;4.72;;;11.10;93.80;;;;;;5010170;28;20034;-83
2022/02/28 09:18:33;;;;;;;10.25;4.40;;;10.50;95.30;;;;;;5011366;28;20030;-83
2022/02/28 09:21:00;;;;;;;5.97;3.40;;;10.60;94.50;;;;;;5003811;28;20054;-82
2022/02/28 09:23:26;;;;;;;8.30;4.05;;;10.70;93.90;;;;;;5010120;28;20026;-83
2022/02/28 09:25:52;;;;;;;8.53;4.10;;;10.80;94.10;;;;;;5014615;28;20476;-82
2022/02/28 09:28:17;;;;;;;7.13;4.17;;;10.80;93.90;;;;;;5012896;28;20033;-82
2022/02/28 09:30:44;;;;;;;12.07;4.03;;;10.70;94.00;;;;;;5014003;28;20065;-83
2022/02/28 09:33:10;;;;;;;11.63;4.13;;;10.70;94.10;;;;;;5007585;28;20316;-84
2022/02/28 09:35:36;;;;;;;11.60;3.97;;;10.70;94.60;;;;;;5017176;28;20026;-86
2022/02/28 09:38:02;;;;;;;6.60;3.90;;;11.00;94.30;;;;;;5010552;28;20357;-83
2022/02/28 09:40:30;;;;;;;8.45;3.35;;;11.10;93.70;;;;;;5014153;28;20050;-83
2022/02/28 09:42:59;;;;;;;9.20;4.05;;;10.90;93.50;;;;;;5013349;28;20060;-82
2022/02/28 09:45:26;;;;;;;9.93;4.20;;;10.80;94.30;;;;;;5010168;28;20821;-83
2022/02/28 09:47:55;;;;;;;7.03;3.35;;;10.90;94.80;;;;;;4992412;28;20110;-82
2022/02/28 09:50:20;;;;;;;10.00;3.78;;;11.00;94.00;;;;;;5010209;28;20117;-82
2022/02/28 09:52:46;;;;;;;10.20;3.67;;;11.00;94.10;;;;;;5018259;28;20101;-88
2022/02/28 09:55:14;;;;;;;6.00;3.77;;;10.90;93.70;;;;;;5017808;28;20323;-83
2022/02/28 09:57:48;;;;;;;7.72;4.10;;;10.80;94.40;;;;;;5009804;28;20065;-83
2022/02/28 10:00:25;;;;;;;4.55;3.70;;;10.60;94.20;;;;;;5009413;28;20018;-86
2022/02/28 10:02:53;;;;;;;;;;;10.30;94.30;;;;;;5015689;28;20428;-83
2022/02/28 10:05:19;;;;;;;6.15;3.92;;;10.50;94.90;;;;;;5010998;28;19914;-87
2022/02/28 10:07:56;;;;;;;9.67;3.80;;;10.60;94.70;;;;;;5003527;28;20121;-83
2022/02/28 10:10:22;;;;;;;;;;;10.60;95.10;;;;;;5020478;28;20030;-82
2022/02/28 10:12:49;;;;;;;11.13;4.07;;;10.60;94.70;;;;;;5013869;28;20275;-83
2022/02/28 10:15:25;;;;;;;10.25;4.07;;;10.40;95.10;;;;;;5006771;28;20332;-84
2022/02/28 10:17:54;;;;;;;9.65;3.72;;;10.50;95.20;;;;;;5009785;28;20060;-82
2022/02/28 10:20:30;;;;;;;9.63;4.28;;;10.50;95.30;;;;;;5013358;28;20121;-82
2022/02/28 10:22:59;;;;;;;9.05;3.25;;;10.30;95.80;;;;;;5013620;28;20030;-85
2022/02/28 10:25:29;;;;;;;7.45;3.92;;;10.40;95.60;;;;;;5016427;28;20029;-83
2022/02/28 10:28:20;;;;;;;6.75;4.13;;;10.50;96.20;;;;;;5012952;28;20030;-87
2022/02/28 10:31:04;;;;;;;7.53;3.70;;;10.50;96.10;;;;;;5014456;28;20038;-83
2022/02/28 10:33:39;;;;;;;13.80;4.30;;;10.20;96.30;;;;;;5016087;28;20032;-83
2022/02/28 10:36:22;;;;;;;7.03;3.83;;;10.00;96.40;;;;;;5012076;28;20026;-85
2022/02/28 10:38:49;;;;;;;9.88;4.13;;;9.90;97.00;;;;;;5017547;28;20106;-85
2022/02/28 10:41:30;;;;;;;7.60;4.03;;;10.00;97.60;;;;;;5015499;28;20056;-85
2022/02/28 10:43:58;;;;;;;10.48;4.55;;;9.80;97.40;;;;;;5029245;28;20040;-82
2022/02/28 10:46:25;;;;;;;6.82;4.57;;;9.70;97.10;;;;;;5022018;28;20079;-86
2022/02/28 10:48:55;;;;;;;16.55;4.80;;;9.70;97.60;;;;;;5008146;28;20026;-86
2022/02/28 10:51:21;;;;;;;9.73;4.13;;;9.60;97.50;;;;;;5011193;28;20471;-85
2022/02/28 10:53:47;;;;;;;6.60;3.53;;;9.50;98.10;;;;;;5015819;28;20305;-86
2022/02/28 10:56:12;;;;;;;11.30;4.17;;;9.40;98.10;;;;;;5014068;28;20030;-87
2022/02/28 10:58:38;;;;;;;8.93;4.70;;;9.50;98.10;;;;;;5013506;28;20022;-86
2022/02/28 11:01:09;;;;;;;8.03;4.13;;;9.50;98.30;;;;;;5013585;28;20026;-87
2022/02/28 11:03:51;;;;;;;7.78;4.28;;;9.50;97.80;;;;;;5015999;28;20412;-86
2022/02/28 11:06:23;;;;;;;14.10;4.57;;;9.50;97.10;;;;;;5025133;28;20029;-87
2022/02/28 11:08:49;;;;;;;10.02;3.92;;;9.60;97.20;;;;;;5019101;28;20424;-87
2022/02/28 11:11:16;;;;;;;9.37;3.87;;;9.60;97.10;;;;;;5022963;28;20061;-83
2022/02/28 11:13:43;;;;;;;10.23;4.38;;;9.60;97.30;;;;;;5026380;28;20412;-88
2022/02/28 11:16:09;;;;;;;;;;;9.40;97.40;;;;;;5027047;28;20034;-88
2022/02/28 11:18:37;;;;;;;;;;;9.50;98.70;;;;;;5019990;28;19949;-88
2022/02/28 11:21:03;;;;;;;7.30;3.88;;;9.70;99.00;;;;;;5004971;28;19916;-88
2022/02/28 11:23:29;;;;;;;11.07;4.47;;;9.70;97.00;;;;;;5005825;28;20045;-85
2022/02/28 11:25:55;;;;;;;8.50;4.40;;;9.70;97.90;;;;;;5032090;28;20033;-88
2022/02/28 11:28:21;;;;;;;7.18;3.88;;;9.70;98.40;;;;;;5016430;28;20436;-86
2022/02/28 11:30:47;;;;;;;6.90;4.13;;;9.90;98.80;;;;;;5006021;28;20106;-89
2022/02/28 11:33:15;;;;;;;9.90;4.70;;;9.90;97.90;;;;;;5006949;28;20317;-85
2022/02/28 11:35:53;;;;;;;5.75;3.78;;;10.00;97.50;;;;;;5009391;28;20060;-83
2022/02/28 11:38:18;;;;;;;7.15;4.07;;;10.10;96.90;;;;;;5014100;28;20030;-88
2022/02/28 11:40:50;;;;;;;7.90;3.90;;;10.20;98.10;;;;;;5009251;28;20079;-85
2022/02/28 11:43:19;;;;;;;8.88;4.65;;;10.40;97.70;;;;;;5015389;28;20451;-90
2022/02/28 11:45:50;;;;;;;5.50;3.80;;;10.50;96.50;;;;;;5012430;28;20038;-86
2022/02/28 11:48:27;;;;;;;10.07;4.47;;;10.50;96.70;;;;;;5008809;28;20160;-89
2022/02/28 11:51:00;;;;;;;8.00;4.13;;;10.30;97.50;;;;;;5009340;28;20168;-84
2022/02/28 11:54:16;;;;;;;9.10;4.40;;;10.40;98.30;;;;;;5011360;28;20321;-83
2022/02/28 11:56:43;;;;;;;7.43;3.78;;;10.50;97.60;;;;;;4956222;29;20038;-83
2022/02/28 11:59:17;;;;;;;9.50;3.97;;;10.60;97.90;;;;;;5009834;28;20034;-88
2022/02/28 12:02:00;;;;;;;5.30;3.70;;;10.70;95.80;;;;;;5023007;28;20056;-83
2022/02/28 12:04:28;;;;;;;8.02;3.85;;;10.70;96.70;;;;;;5012742;28;20026;-84
2022/02/28 12:07:27;;;;;;;7.32;3.95;;;10.70;96.80;;;;;;5012611;28;20113;-85
2022/02/28 12:10:08;;;;;;;12.85;4.00;;;10.90;96.30;;;;;;5023940;28;20034;-83
2022/02/28 12:12:36;;;;;;;5.95;3.67;;;11.10;96.40;;;;;;5015052;28;20056;-90
2022/02/28 12:15:04;;;;;;;8.75;4.05;;;11.10;96.00;;;;;;5020451;28;20026;-89
2022/02/28 12:17:33;;;;;;;6.68;3.65;;;11.00;94.80;;;;;;5015787;28;20030;-86
2022/02/28 12:20:19;;;;;;;6.95;4.32;;;10.90;95.50;;;;;;5009698;28;20435;-84
2022/02/28 12:23:09;;;;;;;8.80;3.90;;;10.70;96.90;;;;;;5011060;28;20181;-89
2022/02/28 12:25:53;;;;;;;6.15;3.83;;;10.90;96.60;;;;;;5013023;28;20025;-87
2022/02/28 12:28:37;;;;;;;6.63;3.15;;;11.10;95.10;;;;;;5006807;28;20025;-83
2022/02/28 12:31:08;;;;;;;9.43;4.13;;;10.90;94.00;;;;;;4996831;28;20046;-84
2022/02/28 12:33:34;;;;;;;5.78;3.85;;;10.80;95.00;;;;;;5010280;28;20088;-82
2022/02/28 12:36:07;;;;;;;6.00;4.23;;;10.80;95.70;;;;;;5008889;28;20018;-83
2022/02/28 12:38:55;;;;;;;8.10;4.00;;;11.00;95.60;;;;;;5010483;28;20370;-82
2022/02/28 12:41:23;;;;;;;6.65;3.58;;;11.20;95.30;;;;;;5006512;28;20835;-82
2022/02/28 12:43:52;;;;;;;7.82;3.92;;;11.50;95.40;;;;;;5008262;28;20034;-85
2022/02/28 12:46:35;;;;;;;7.35;3.80;;;11.60;94.50;;;;;;5011883;28;20109;-84
2022/02/28 12:49:01;;;;;;;4.78;3.30;;;11.50;92.80;;;;;;5001735;28;20494;-91
2022/02/28 12:51:29;;;;;;;7.43;3.65;;;11.20;93.10;;;;;;5009576;28;20440;-83
2022/02/28 12:54:04;;;;;;;8.02;4.00;;;11.10;93.40;;;;;;5013143;28;20021;-89